createdAt,value
2019-02-25T00:01:25.326Z,2.41
2019-02-25T00:03:52.377Z,2.37
2019-02-25T00:06:19.631Z,2.37
2019-02-25T00:08:46.852Z,2.35
2019-02-25T00:11:13.962Z,2.28
2019-02-25T00:13:40.999Z,2.26
2019-02-25T00:16:09.537Z,2.21
2019-02-25T00:18:36.716Z,2.19
2019-02-25T00:21:03.766Z,2.22
2019-02-25T00:23:30.855Z,2.23
2019-02-25T00:25:57.921Z,2.25
2019-02-25T00:28:25.082Z,2.22
2019-02-25T00:30:52.138Z,2.20
2019-02-25T00:33:19.290Z,2.18
2019-02-25T00:35:46.360Z,2.18
2019-02-25T00:38:13.478Z,2.15
2019-02-25T00:40:40.536Z,2.11
2019-02-25T00:43:07.586Z,2.06
2019-02-25T00:45:34.691Z,2.04
2019-02-25T00:48:01.807Z,2.00
2019-02-25T00:50:28.863Z,1.98
2019-02-25T00:52:55.948Z,1.97
2019-02-25T00:55:23.051Z,1.92
2019-02-25T00:57:50.147Z,1.97
2019-02-25T01:00:17.468Z,1.95
2019-02-25T01:02:44.567Z,1.88
2019-02-25T01:05:11.623Z,1.83
2019-02-25T01:07:38.975Z,1.78
2019-02-25T01:10:06.637Z,1.79
2019-02-25T01:12:33.683Z,1.88
2019-02-25T01:15:00.717Z,1.97
2019-02-25T01:17:27.807Z,1.99
2019-02-25T01:19:54.889Z,1.97
2019-02-25T01:22:23.584Z,1.90
2019-02-25T01:24:50.670Z,1.97
2019-02-25T01:27:17.717Z,2.00
2019-02-25T01:29:44.763Z,1.97
2019-02-25T01:32:11.833Z,1.90
2019-02-25T01:34:38.891Z,1.86
2019-02-25T01:37:07.778Z,1.79
2019-02-25T01:39:34.847Z,1.72
2019-02-25T01:42:01.885Z,1.68
2019-02-25T01:44:28.941Z,1.63
2019-02-25T01:46:57.123Z,1.61
2019-02-25T01:49:24.160Z,1.57
2019-02-25T01:51:51.219Z,1.58
2019-02-25T01:54:18.287Z,1.54
2019-02-25T01:56:45.363Z,1.51
2019-02-25T01:59:12.399Z,1.44
2019-02-25T02:01:39.688Z,1.40
2019-02-25T02:04:06.706Z,1.38
2019-02-25T02:06:33.739Z,1.40
2019-02-25T02:09:00.837Z,1.47
2019-02-25T02:11:27.888Z,1.58
2019-02-25T02:13:54.940Z,1.69
2019-02-25T02:16:22.017Z,1.62
2019-02-25T02:18:49.072Z,1.57
2019-02-25T02:21:16.131Z,1.54
2019-02-25T02:23:43.227Z,1.49
2019-02-25T02:26:10.299Z,1.43
2019-02-25T02:28:37.329Z,1.40
2019-02-25T02:31:16.358Z,1.39
2019-02-25T02:33:43.446Z,1.40
2019-02-25T02:36:11.710Z,1.44
2019-02-25T02:38:39.103Z,1.48
2019-02-25T02:41:06.207Z,1.48
2019-02-25T02:43:33.235Z,1.40
2019-02-25T02:47:02.001Z,1.31
2019-02-25T02:49:29.047Z,1.26
2019-02-25T02:51:56.090Z,1.21
2019-02-25T02:54:23.173Z,1.20
2019-02-25T02:56:50.304Z,1.19
2019-02-25T02:59:17.375Z,1.15
2019-02-25T03:01:44.472Z,1.17
2019-02-25T03:04:11.501Z,1.22
2019-02-25T03:06:38.559Z,1.22
2019-02-25T03:09:08.849Z,1.23
2019-02-25T03:11:36.661Z,1.28
2019-02-25T03:14:03.838Z,1.29
2019-02-25T03:16:30.899Z,1.30
2019-02-25T03:18:57.975Z,1.25
2019-02-25T03:21:25.031Z,1.20
2019-02-25T03:23:52.092Z,1.17
2019-02-25T03:26:19.223Z,1.18
2019-02-25T03:28:46.265Z,1.15
2019-02-25T03:31:13.342Z,1.16
2019-02-25T03:33:40.498Z,1.14
2019-02-25T03:36:07.632Z,1.12
2019-02-25T03:38:34.694Z,1.09
2019-02-25T03:41:01.796Z,1.03
2019-02-25T03:43:28.846Z,1.00
2019-02-25T03:45:55.871Z,0.98
2019-02-25T03:48:22.939Z,0.99
2019-02-25T03:50:50.021Z,0.99
2019-02-25T03:53:17.053Z,1.00
2019-02-25T03:55:44.125Z,1.00
2019-02-25T03:58:11.294Z,0.96
2019-02-25T04:00:38.423Z,0.93
2019-02-25T04:03:05.494Z,0.93
2019-02-25T04:05:32.526Z,0.90
2019-02-25T04:07:59.606Z,0.84
2019-02-25T04:10:26.645Z,0.82
2019-02-25T04:12:53.706Z,0.86
2019-02-25T04:15:23.779Z,0.85
2019-02-25T04:17:50.838Z,0.87
2019-02-25T04:20:17.892Z,0.86
2019-02-25T04:22:44.979Z,0.84
2019-02-25T04:25:12.035Z,0.85
2019-02-25T04:27:40.879Z,0.83
2019-02-25T04:30:10.677Z,0.81
2019-02-25T04:32:37.731Z,0.81
2019-02-25T04:35:06.034Z,0.83
2019-02-25T04:37:33.115Z,0.83
2019-02-25T04:40:00.311Z,0.94
2019-02-25T04:42:27.318Z,0.96
2019-02-25T04:44:54.519Z,1.05
2019-02-25T04:47:22.677Z,1.06
2019-02-25T04:49:49.706Z,1.07
2019-02-25T04:52:16.789Z,1.05
2019-02-25T04:54:43.935Z,0.96
2019-02-25T04:57:11.035Z,0.94
2019-02-25T04:59:38.098Z,0.92
2019-02-25T05:02:42.940Z,0.90
2019-02-25T05:05:10.459Z,0.92
2019-02-25T05:07:37.500Z,0.93
2019-02-25T05:10:05.432Z,0.97
2019-02-25T05:12:32.516Z,1.03
2019-02-25T05:14:59.557Z,1.12
2019-02-25T05:17:26.628Z,1.22
2019-02-25T05:19:53.693Z,1.23
2019-02-25T05:22:20.733Z,1.24
2019-02-25T05:24:47.810Z,1.22
2019-02-25T05:27:14.962Z,1.36
2019-02-25T05:30:18.770Z,1.33
2019-02-25T05:32:45.867Z,1.24
2019-02-25T05:35:12.921Z,1.17
2019-02-25T05:37:39.991Z,1.14
2019-02-25T05:40:10.212Z,1.12
2019-02-25T05:43:20.264Z,1.06
2019-02-25T05:45:47.495Z,1.02
2019-02-25T05:48:15.559Z,0.97
2019-02-25T05:50:42.608Z,0.95
2019-02-25T05:53:09.700Z,0.97
2019-02-25T05:55:36.873Z,0.95
2019-02-25T05:58:03.936Z,0.91
2019-02-25T06:00:31.425Z,0.88
2019-02-25T06:02:58.480Z,0.84
2019-02-25T06:05:25.520Z,0.81
2019-02-25T06:07:52.595Z,0.76
2019-02-25T06:10:19.740Z,0.75
2019-02-25T06:12:46.792Z,0.74
2019-02-25T06:15:14.428Z,0.70
2019-02-25T06:17:41.478Z,0.67
2019-02-25T06:20:09.490Z,0.67
2019-02-25T06:22:36.557Z,0.64
2019-02-25T06:25:04.432Z,0.61
2019-02-25T06:27:31.470Z,0.62
2019-02-25T06:29:58.561Z,0.62
2019-02-25T06:32:25.608Z,0.62
2019-02-25T06:34:52.701Z,0.60
2019-02-25T06:37:22.826Z,0.59
2019-02-25T06:39:49.897Z,0.63
2019-02-25T06:42:16.949Z,0.75
2019-02-25T06:44:44.019Z,0.81
2019-02-25T06:47:11.082Z,0.88
2019-02-25T06:49:38.461Z,0.91
2019-02-25T06:52:05.519Z,0.88
2019-02-25T06:54:32.598Z,0.85
2019-02-25T06:56:59.679Z,0.85
2019-02-25T06:59:35.607Z,0.87
2019-02-25T07:02:02.640Z,0.91
2019-02-25T07:04:56.402Z,0.92
2019-02-25T07:07:46.060Z,0.86
2019-02-25T07:10:32.191Z,0.84
2019-02-25T07:16:27.707Z,0.91
2019-02-25T07:19:11.421Z,0.96
2019-02-25T07:21:58.736Z,1.04
2019-02-25T07:24:32.764Z,1.10
2019-02-25T07:27:23.289Z,1.19
2019-02-25T07:30:17.557Z,1.29
2019-02-25T07:33:07.230Z,1.34
2019-02-25T07:35:56.877Z,1.47
2019-02-25T07:38:52.368Z,1.73
2019-02-25T07:41:51.091Z,1.96
2019-02-25T07:44:29.262Z,2.12
2019-02-25T07:47:19.047Z,2.40
2019-02-25T07:50:08.787Z,2.56
2019-02-25T07:52:47.633Z,2.66
2019-02-25T07:55:33.082Z,2.84
2019-02-25T07:58:26.920Z,2.98
2019-02-25T08:01:03.581Z,3.35
2019-02-25T08:03:55.246Z,3.74
2019-02-25T08:06:47.971Z,4.02
2019-02-25T08:09:33.195Z,4.31
2019-02-25T08:12:19.862Z,4.47
2019-02-25T08:15:12.665Z,4.60
2019-02-25T08:18:02.765Z,4.62
2019-02-25T08:20:48.183Z,4.78
2019-02-25T08:23:30.654Z,4.98
2019-02-25T08:26:38.693Z,5.06
2019-02-25T08:29:28.278Z,5.15
2019-02-25T08:32:21.387Z,5.25
2019-02-25T08:35:14.031Z,5.30
2019-02-25T08:37:56.154Z,5.39
2019-02-25T08:41:16.937Z,5.52
2019-02-25T08:44:03.614Z,5.63
2019-02-25T08:46:53.514Z,5.77
2019-02-25T08:49:24.352Z,5.86
2019-02-25T08:51:51.404Z,5.95
2019-02-25T08:54:18.491Z,6.12
2019-02-25T08:56:45.600Z,6.29
2019-02-25T08:59:12.748Z,6.34
2019-02-25T09:01:39.916Z,6.40
2019-02-25T09:04:06.988Z,6.50
2019-02-25T09:06:34.049Z,6.58
2019-02-25T09:09:01.130Z,6.69
2019-02-25T09:11:46.387Z,6.82
2019-02-25T09:14:13.433Z,6.97
2019-02-25T09:16:40.591Z,7.11
2019-02-25T09:20:03.000Z,7.25
2019-02-25T09:22:36.293Z,7.41
2019-02-25T09:25:03.615Z,7.55
2019-02-25T09:27:30.709Z,7.67
2019-02-25T09:29:57.776Z,7.68
2019-02-25T09:32:24.863Z,7.79
2019-02-25T09:34:51.932Z,7.92
2019-02-25T09:37:19.068Z,8.03
2019-02-25T09:39:46.116Z,8.13
2019-02-25T09:42:13.210Z,8.26
2019-02-25T09:44:40.249Z,8.39
2019-02-25T09:47:07.347Z,8.44
2019-02-25T09:49:34.455Z,8.45
2019-02-25T09:52:01.731Z,8.48
2019-02-25T09:54:28.848Z,8.62
2019-02-25T09:56:55.967Z,8.70
2019-02-25T09:59:23.088Z,8.75
2019-02-25T10:01:50.207Z,8.87
2019-02-25T10:04:17.387Z,8.97
2019-02-25T10:06:44.499Z,9.06
2019-02-25T10:09:11.713Z,9.11
2019-02-25T10:11:38.763Z,9.16
2019-02-25T10:14:05.884Z,9.26
2019-02-25T10:16:32.971Z,9.36
2019-02-25T10:19:00.063Z,9.38
2019-02-25T10:21:28.360Z,9.50
2019-02-25T10:23:55.482Z,9.63
2019-02-25T10:26:22.623Z,9.77
2019-02-25T10:28:49.691Z,9.82
2019-02-25T10:31:17.495Z,9.92
2019-02-25T10:33:44.624Z,10.01
2019-02-25T10:37:05.603Z,10.08
2019-02-25T10:39:32.663Z,10.23
2019-02-25T10:42:01.601Z,10.40
2019-02-25T10:44:29.719Z,10.47
2019-02-25T10:46:57.263Z,10.57
2019-02-25T10:49:25.096Z,10.66
2019-02-25T10:51:53.334Z,10.75
2019-02-25T10:54:21.254Z,10.90
2019-02-25T10:56:54.216Z,10.97
2019-02-25T10:59:24.485Z,10.96
2019-02-25T11:02:11.602Z,10.98
2019-02-25T11:04:39.658Z,11.13
2019-02-25T11:07:27.192Z,11.28
2019-02-25T11:10:20.332Z,11.35
2019-02-25T11:12:48.893Z,11.49
2019-02-25T11:15:16.068Z,11.49
2019-02-25T11:17:43.225Z,11.53
2019-02-25T11:21:13.535Z,11.62
2019-02-25T11:23:40.601Z,11.73
2019-02-25T11:26:09.312Z,11.89
2019-02-25T11:28:39.190Z,11.89
2019-02-25T11:31:05.590Z,11.95
2019-02-25T11:33:34.351Z,12.02
2019-02-25T11:36:01.627Z,12.17
2019-02-25T11:38:30.404Z,12.31
2019-02-25T11:40:59.833Z,12.37
2019-02-25T11:43:27.602Z,12.42
2019-02-25T11:46:35.827Z,12.40
2019-02-25T11:49:03.160Z,12.45
2019-02-25T11:51:30.325Z,12.49
2019-02-25T11:53:59.440Z,12.51
2019-02-25T11:56:26.586Z,12.58
2019-02-25T11:58:53.671Z,12.56
2019-02-25T12:01:20.807Z,12.55
2019-02-25T12:03:47.904Z,12.52
2019-02-25T12:06:14.960Z,12.54
2019-02-25T12:08:42.137Z,12.57
2019-02-25T12:11:09.251Z,12.64
2019-02-25T12:13:36.354Z,12.69
2019-02-25T12:16:03.523Z,12.93
2019-02-25T12:18:30.688Z,13.10
2019-02-25T12:20:57.839Z,13.20
2019-02-25T12:23:24.904Z,13.37
2019-02-25T12:25:51.988Z,13.52
2019-02-25T12:28:19.186Z,13.74
2019-02-25T12:30:46.303Z,13.81
2019-02-25T12:33:13.353Z,13.99
2019-02-25T12:35:40.434Z,14.27
2019-02-25T12:38:07.560Z,14.37
2019-02-25T12:40:34.605Z,14.49
2019-02-25T12:43:01.657Z,14.59
2019-02-25T12:45:29.086Z,14.70
2019-02-25T12:47:56.190Z,14.76
2019-02-25T12:50:24.360Z,14.75
2019-02-25T12:52:51.444Z,14.76
2019-02-25T12:55:18.495Z,14.84
2019-02-25T12:58:24.693Z,14.98
2019-02-25T13:00:51.802Z,15.23
2019-02-25T13:03:18.978Z,15.47
2019-02-25T13:05:46.146Z,15.67
2019-02-25T13:08:14.946Z,15.92
2019-02-25T13:10:42.014Z,16.30
2019-02-25T13:13:09.063Z,16.67
2019-02-25T13:15:36.143Z,16.98
2019-02-25T13:18:03.294Z,17.33
2019-02-25T13:20:30.351Z,17.67
2019-02-25T13:22:57.459Z,18.07
2019-02-25T13:25:25.670Z,18.42
2019-02-25T13:27:54.355Z,18.58
2019-02-25T13:30:21.853Z,18.71
2019-02-25T13:32:48.937Z,18.89
2019-02-25T13:35:15.997Z,18.99
2019-02-25T13:37:43.520Z,19.13
2019-02-25T13:40:10.704Z,19.16
2019-02-25T13:42:37.764Z,19.19
2019-02-25T13:45:05.127Z,19.52
2019-02-25T13:47:32.369Z,19.85
2019-02-25T13:49:59.521Z,19.94
2019-02-25T13:52:26.602Z,19.87
2019-02-25T13:55:19.529Z,19.78
2019-02-25T13:57:46.621Z,19.78
2019-02-25T14:00:16.132Z,19.76
2019-02-25T14:02:43.651Z,19.77
2019-02-25T14:05:10.763Z,19.75
2019-02-25T14:07:37.925Z,19.84
2019-02-25T14:10:06.770Z,19.97
2019-02-25T14:12:33.919Z,19.84
2019-02-25T14:15:01.009Z,19.90
2019-02-25T14:17:28.165Z,19.72
2019-02-25T14:19:55.416Z,19.75
2019-02-25T14:22:22.509Z,19.70
2019-02-25T14:24:49.757Z,19.70
2019-02-25T14:27:16.809Z,19.64
2019-02-25T14:29:44.641Z,19.64
2019-02-25T14:32:15.263Z,19.62
2019-02-25T14:34:44.423Z,19.51
2019-02-25T14:37:13.758Z,19.34
2019-02-25T14:39:43.142Z,19.20
2019-02-25T14:42:11.985Z,19.07
2019-02-25T14:48:15.387Z,18.78
2019-02-25T14:50:41.814Z,18.48
2019-02-25T14:53:11.577Z,18.31
2019-02-25T14:55:40.670Z,18.20
2019-02-25T14:58:09.844Z,18.06
2019-02-25T15:00:38.389Z,17.98
2019-02-25T15:03:05.475Z,17.82
2019-02-25T15:05:32.648Z,17.72
2019-02-25T15:08:00.054Z,17.65
2019-02-25T15:10:29.654Z,17.62
2019-02-25T15:12:58.659Z,17.47
2019-02-25T15:22:33.961Z,17.36
2019-02-25T15:25:01.250Z,17.22
2019-02-25T15:27:28.311Z,17.15
2019-02-25T15:29:56.579Z,17.00
2019-02-25T15:32:23.637Z,16.97
2019-02-25T15:34:51.202Z,16.90
2019-02-25T15:37:19.658Z,16.86
2019-02-25T15:39:46.760Z,16.76
2019-02-25T15:42:16.629Z,16.71
2019-02-25T15:44:44.508Z,16.74
2019-02-25T15:47:13.328Z,16.66
2019-02-25T15:49:43.745Z,16.72
2019-02-25T15:52:14.648Z,16.71
2019-02-25T15:54:41.425Z,16.63
2019-02-25T15:57:09.081Z,16.62
2019-02-25T15:59:45.040Z,16.63
2019-02-25T16:02:14.175Z,16.59
2019-02-25T16:04:42.367Z,16.51
2019-02-25T16:07:10.563Z,16.39
2019-02-25T16:09:45.229Z,16.19
2019-02-25T16:12:12.358Z,16.05
2019-02-25T16:14:39.572Z,15.89
2019-02-25T16:17:06.645Z,15.82
2019-02-25T16:19:41.305Z,15.67
2019-02-25T16:22:03.524Z,15.62
2019-02-25T16:24:31.964Z,15.50
2019-02-25T16:27:00.526Z,15.49
2019-02-25T16:29:28.031Z,15.38
2019-02-25T16:31:55.600Z,15.29
2019-02-25T16:34:23.953Z,15.14
2019-02-25T16:36:52.000Z,15.05
2019-02-25T16:39:20.123Z,15.07
2019-02-25T16:41:47.791Z,15.00
2019-02-25T16:44:15.126Z,14.88
2019-02-25T16:46:43.849Z,14.80
2019-02-25T16:49:11.469Z,14.65
2019-02-25T16:51:38.588Z,14.47
2019-02-25T16:54:11.011Z,14.38
2019-02-25T16:56:36.633Z,14.14
2019-02-25T16:59:10.615Z,13.98
2019-02-25T17:01:34.968Z,13.86
2019-02-25T17:04:01.824Z,13.77
2019-02-25T17:06:30.400Z,13.59
2019-02-25T17:08:57.981Z,13.39
2019-02-25T17:11:25.018Z,13.20
2019-02-25T17:13:53.000Z,12.95
2019-02-25T17:16:24.116Z,12.71
2019-02-25T17:18:50.269Z,12.68
2019-02-25T17:21:17.345Z,12.53
2019-02-25T17:23:44.423Z,12.42
2019-02-25T17:26:12.630Z,12.33
2019-02-25T17:28:40.689Z,12.09
2019-02-25T17:31:08.980Z,11.77
2019-02-25T17:33:37.519Z,11.51
2019-02-25T17:36:06.234Z,11.21
2019-02-25T17:38:41.120Z,10.98
2019-02-25T17:41:13.129Z,10.73
2019-02-25T17:43:42.546Z,10.47
2019-02-25T17:46:11.535Z,10.22
2019-02-25T17:48:38.505Z,9.99
2019-02-25T17:51:05.678Z,9.85
2019-02-25T17:53:32.858Z,9.71
2019-02-25T17:56:00.260Z,9.58
2019-02-25T17:58:27.332Z,9.45
2019-02-25T18:00:56.334Z,9.25
2019-02-25T18:03:24.271Z,9.09
2019-02-25T18:05:52.960Z,8.93
2019-02-25T18:08:22.806Z,8.82
2019-02-25T18:10:51.978Z,8.72
2019-02-25T18:13:19.786Z,8.64
2019-02-25T18:15:51.549Z,8.54
2019-02-25T18:18:25.528Z,8.42
2019-02-25T18:20:53.629Z,8.31
2019-02-25T18:23:21.722Z,8.20
2019-02-25T18:25:49.339Z,8.05
2019-02-25T18:28:17.849Z,7.95
2019-02-25T18:30:45.586Z,7.86
2019-02-25T18:33:13.425Z,7.84
2019-02-25T18:35:41.663Z,7.84
2019-02-25T18:38:09.899Z,7.83
2019-02-25T18:40:38.769Z,7.79
2019-02-25T18:43:07.110Z,7.70
2019-02-25T18:45:38.460Z,7.62
2019-02-25T18:48:07.898Z,7.48
2019-02-25T18:50:35.965Z,7.37
2019-02-25T18:53:03.662Z,7.29
2019-02-25T18:55:34.229Z,7.19
2019-02-25T18:58:05.628Z,7.07
2019-02-25T19:03:24.981Z,7.08
2019-02-25T19:05:57.053Z,6.95
2019-02-25T19:08:26.780Z,6.86
2019-02-25T19:11:51.230Z,6.82
2019-02-25T19:14:21.786Z,6.79
2019-02-25T19:16:48.688Z,6.59
2019-02-25T19:19:18.792Z,6.51
2019-02-25T19:21:47.865Z,6.43
2019-02-25T19:24:18.274Z,6.36
2019-02-25T19:26:46.926Z,6.39
2019-02-25T19:29:15.229Z,6.33
2019-02-25T19:31:44.056Z,6.22
2019-02-25T19:34:11.300Z,6.10
2019-02-25T19:36:41.241Z,5.96
2019-02-25T19:39:12.403Z,5.88
2019-02-25T19:41:40.549Z,5.85
2019-02-25T19:44:08.040Z,5.80
2019-02-25T19:46:45.644Z,5.73
2019-02-25T19:49:16.003Z,5.63
2019-02-25T19:52:02.172Z,5.53
2019-02-25T19:54:29.627Z,5.45
2019-02-25T19:56:58.000Z,5.38
2019-02-25T19:59:26.828Z,5.32
2019-02-25T20:01:54.503Z,5.27
2019-02-25T20:04:21.653Z,5.21
2019-02-25T20:06:49.441Z,5.12
2019-02-25T20:09:18.740Z,5.10
2019-02-25T20:11:45.880Z,5.11
2019-02-25T20:14:16.498Z,5.07
2019-02-25T20:16:42.137Z,4.97
2019-02-25T20:19:29.579Z,4.94
2019-02-25T20:21:57.162Z,4.93
2019-02-25T20:24:25.632Z,4.82
2019-02-25T20:26:57.623Z,4.83
2019-02-25T20:29:22.033Z,4.86
2019-02-25T20:31:50.177Z,4.81
2019-02-25T20:34:20.466Z,4.82
2019-02-25T20:36:48.316Z,4.79
2019-02-25T20:39:17.047Z,4.74
2019-02-25T20:41:45.817Z,4.68
2019-02-25T20:44:13.797Z,4.63
2019-02-25T20:46:40.901Z,4.59
2019-02-25T20:49:08.121Z,4.52
2019-02-25T20:51:36.208Z,4.50
2019-02-25T20:54:03.430Z,4.52
2019-02-25T20:56:31.485Z,4.46
2019-02-25T20:59:06.177Z,4.43
2019-02-25T21:01:37.143Z,4.34
2019-02-25T21:04:02.977Z,4.26
2019-02-25T21:06:30.147Z,4.25
2019-02-25T21:09:06.586Z,4.23
2019-02-25T21:11:33.891Z,4.20
2019-02-25T21:14:00.991Z,4.18
2019-02-25T21:16:30.482Z,4.12
2019-02-25T21:18:57.435Z,4.06
2019-02-25T21:21:24.561Z,4.01
2019-02-25T21:23:51.735Z,3.96
2019-02-25T21:26:18.850Z,3.90
2019-02-25T21:28:46.059Z,3.86
2019-02-25T21:31:14.595Z,3.85
2019-02-25T21:33:44.872Z,3.82
2019-02-25T21:36:11.183Z,3.81
2019-02-25T21:38:38.250Z,3.76
2019-02-25T21:41:07.479Z,3.69
2019-02-25T21:43:34.506Z,3.65
2019-02-25T21:46:01.792Z,3.63
2019-02-25T21:48:30.250Z,3.59
2019-02-25T21:51:02.223Z,3.56
2019-02-25T21:53:27.317Z,3.56
2019-02-25T21:55:55.972Z,3.58
2019-02-25T21:58:25.350Z,3.60
2019-02-25T22:00:53.338Z,3.56
2019-02-25T22:03:21.809Z,3.47
2019-02-25T22:05:49.483Z,3.42
2019-02-25T22:08:20.099Z,3.37
2019-02-25T22:10:47.035Z,3.43
2019-02-25T22:13:15.942Z,3.50
2019-02-25T22:15:49.059Z,3.43
2019-02-25T22:18:16.261Z,3.38
2019-02-25T22:20:45.392Z,3.39
2019-02-25T22:23:12.337Z,3.34
2019-02-25T22:25:39.529Z,3.29
2019-02-25T22:28:07.846Z,3.21
2019-02-25T22:30:35.583Z,3.16
2019-02-25T22:33:04.704Z,3.11
2019-02-25T22:35:35.492Z,3.12
2019-02-25T22:38:02.728Z,3.11
2019-02-25T22:40:32.139Z,3.07
2019-02-25T22:42:59.054Z,3.02
2019-02-25T22:45:26.237Z,3.00
2019-02-25T22:47:53.332Z,2.97
2019-02-25T22:50:20.406Z,2.98
2019-02-25T22:52:51.638Z,2.99
2019-02-25T22:55:18.486Z,2.93
2019-02-25T22:57:50.511Z,2.84
2019-02-25T23:00:28.237Z,2.77
2019-02-25T23:02:56.778Z,2.73
2019-02-25T23:05:25.508Z,2.70
2019-02-25T23:07:54.568Z,2.70
2019-02-25T23:10:22.332Z,2.69
2019-02-25T23:12:50.755Z,2.72
2019-02-25T23:15:18.645Z,2.71
2019-02-25T23:17:47.078Z,2.74
2019-02-25T23:20:20.264Z,2.74
2019-02-25T23:22:47.327Z,2.73
2019-02-25T23:25:14.448Z,2.66
2019-02-25T23:27:41.528Z,2.64
2019-02-25T23:30:09.094Z,2.63
2019-02-25T23:32:39.422Z,2.62
2019-02-25T23:35:09.427Z,2.58
2019-02-25T23:37:36.575Z,2.57
2019-02-25T23:40:06.741Z,2.58
2019-02-25T23:42:35.597Z,2.51
2019-02-25T23:45:02.055Z,2.49
2019-02-25T23:47:31.150Z,2.44
2019-02-25T23:49:58.139Z,2.40
2019-02-25T23:52:25.695Z,2.38
2019-02-25T23:54:54.765Z,2.36
2019-02-25T23:57:23.848Z,2.39
2019-02-25T23:59:53.991Z,2.40
